This is the latest recevied weather packets stored in our database for station/object K6HFP. If no packets are shown the sender has not sent any weather packets the latest 1 day(s).
| Time | Temp. | Humidity | Pressure | Rain* | Wind** | Luminosity | Snow |
|---|---|---|---|---|---|---|---|
| 1778013528 | 16.11° C | 72% | 1014.3 hPa | 0 mm | 0.89 m/s, 233° | 227 W/m² | - |
| 1778013224 | 16.11° C | 71% | 1013.9 hPa | 0 mm | 1.34 m/s, 174° | 275 W/m² | - |
| 1778012921 | 16.67° C | 70% | 1014 hPa | 0 mm | 0 m/s | 760 W/m² | - |
| 1778012617 | 16.67° C | 72% | 1014.1 hPa | 0 mm | 0.45 m/s, 182° | 452 W/m² | - |
| 1778012314 | 16.67° C | 69% | 1014.1 hPa | 0 mm | 0.89 m/s, 339° | 612 W/m² | - |
| 1778012011 | 16.11° C | 73% | 1014.4 hPa | 0 mm | 0.89 m/s, 178° | 1274 W/m² | - |
| 1778011710 | 16.67° C | 69% | 1014.2 hPa | 0 mm | 1.79 m/s, 175° | 724 W/m² | - |
| 1778011406 | 15.56° C | 77% | 1014.4 hPa | 0 mm | 0.89 m/s, 176° | 1237 W/m² | - |
| 1778011101 | 15° C | 77% | 1014.2 hPa | 0 mm | 0.45 m/s, 112° | 1004 W/m² | - |
| 1778010799 | 15° C | 75% | 1014.4 hPa | 0 mm | 0.45 m/s, 135° | 348 W/m² | - |
| 1778010496 | 15° C | 78% | 1014.4 hPa | 0 mm | 0.89 m/s, 14° | 268 W/m² | - |
| 1778010193 | 15° C | 77% | 1014.7 hPa | 0 mm | 0.45 m/s, 354° | 268 W/m² | - |
| 1778009888 | 14.44° C | 76% | 1014.7 hPa | 0 mm | 0.89 m/s, 162° | 336 W/m² | - |
| 1778009587 | 14.44° C | 76% | 1014.4 hPa | 0 mm | 1.34 m/s, 276° | 377 W/m² | - |
| 1778009284 | 14.44° C | 78% | 1014.7 hPa | 0 mm | 0.89 m/s, 354° | 389 W/m² | - |
| 1778008982 | 14.44° C | 80% | 1014.9 hPa | 0 mm | 0.45 m/s, 146° | 401 W/m² | - |
| 1778008680 | 13.89° C | 79% | 1014.9 hPa | 0 mm | 0.45 m/s, 168° | 335 W/m² | - |
| 1778008378 | 13.89° C | 80% | 1014.3 hPa | 0 mm | 1.34 m/s, 157° | 263 W/m² | - |
| 1778008074 | 13.89° C | 80% | 1014.6 hPa | 0 mm | 0.45 m/s, 224° | 277 W/m² | - |
| 1778007769 | 14.44° C | 79% | 1014.6 hPa | 0 mm | 1.34 m/s, 341° | 284 W/m² | - |
| 1778007466 | 13.89° C | 79% | 1014.6 hPa | 0 mm | 0.89 m/s, 174° | 362 W/m² | - |
| 1778007162 | 14.44° C | 80% | 1014.6 hPa | 0 mm | 0.89 m/s, 197° | 356 W/m² | - |
| 1778006858 | 14.44° C | 78% | 1014.4 hPa | 0 mm | 1.34 m/s, 322° | 410 W/m² | - |
| 1778006556 | 13.89° C | 80% | 1014.6 hPa | 0 mm | 1.34 m/s, 256° | 574 W/m² | - |
| 1778006252 | 13.89° C | 82% | 1014.6 hPa | 0 mm | 0.89 m/s, 186° | 518 W/m² | - |
* Rain latest hour (hover to see other rain measurements)
** Current wind speed in m/s (hover to see current wind gust speed)